Time;durP1;ratioP1;P1;durP2;ratioP2;P2;SDS_P1;SDS_P2;PMS_P1;PMS_P2;Temp;Humidity;BMP_temperature;BMP_pressure;BME280_temperature;BME280_humidity;BME280_pressure;Samples;Min_cycle;Max_cycle;Signal;HPM_P1;HPM_P2
2022/10/28 00:02:00;;;;;;;4.83;3.40;;;;;;;;;;5011387;28;20227;-75
2022/10/28 00:04:26;;;;;;;3.40;3.10;;;;;;;;;;4991291;28;20648;-75
2022/10/28 00:06:51;;;;;;;3.90;3.27;;;;;;;;;;5008961;28;20232;-75
2022/10/28 00:09:17;;;;;;;4.03;3.63;;;;;;;;;;5001732;28;20295;-75
2022/10/28 00:11:45;;;;;;;5.80;3.43;;;;;;;;;;5021309;28;20231;-75
2022/10/28 00:14:13;;;;;;;5.33;3.53;;;;;;;;;;5007203;28;20874;-75
2022/10/28 00:16:41;;;;;;;3.93;3.43;;;;;;;;;;5019040;28;20236;-75
2022/10/28 00:19:12;;;;;;;5.10;2.73;;;;;;;;;;5016837;28;20663;-75
2022/10/28 00:21:38;;;;;;;4.10;3.70;;;;;;;;;;4973392;28;20319;-75
2022/10/28 00:24:05;;;;;;;3.43;2.90;;;;;;;;;;5007576;28;20274;-75
2022/10/28 00:26:31;;;;;;;3.37;3.07;;;;;;;;;;5026789;28;20227;-75
2022/10/28 00:29:05;;;;;;;4.30;3.90;;;;;;;;;;5005811;28;20248;-75
2022/10/28 00:31:30;;;;;;;3.97;3.60;;;;;;;;;;4989242;28;20228;-75
2022/10/28 00:33:57;;;;;;;4.30;3.90;;;;;;;;;;4987652;28;20236;-75
2022/10/28 00:36:44;;;;;;;4.03;3.63;;;;;;;;;;5005727;28;20239;-75
2022/10/28 00:39:15;;;;;;;4.67;4.27;;;;;;;;;;5020487;28;20694;-75
2022/10/28 00:41:43;;;;;;;6.80;4.67;;;;;;;;;;5020424;28;20221;-75
2022/10/28 00:44:36;;;;;;;4.50;4.10;;;;;;;;;;5003881;28;20694;-75
2022/10/28 00:47:01;;;;;;;5.80;3.97;;;;;;;;;;5012804;28;20237;-75
2022/10/28 00:49:28;;;;;;;4.13;3.83;;;;;;;;;;4986883;28;20274;-74
2022/10/28 00:51:58;;;;;;;4.60;3.60;;;;;;;;;;5007396;28;20224;-76
2022/10/28 00:54:23;;;;;;;4.83;4.33;;;;;;;;;;5004010;28;20240;-75
2022/10/28 00:56:50;;;;;;;4.63;4.23;;;;;;;;;;5007262;28;20602;-75
2022/10/28 00:59:20;;;;;;;5.27;4.77;;;;;;;;;;4994515;28;20294;-75
2022/10/28 01:01:46;;;;;;;5.57;4.73;;;;;;;;;;5006380;28;20418;-75
2022/10/28 01:04:11;;;;;;;7.60;4.70;;;;;;;;;;4997385;28;20266;-75
2022/10/28 01:06:37;;;;;;;4.13;3.77;;;;;;;;;;4993744;28;20278;-75
2022/10/28 01:09:02;;;;;;;4.83;3.67;;;;;;;;;;5007858;28;20228;-75
2022/10/28 01:11:36;;;;;;;3.63;3.33;;;;;;;;;;5005403;28;20225;-75
2022/10/28 01:14:30;;;;;;;3.67;3.30;;;;;;;;;;5019834;28;20647;-75
2022/10/28 01:17:14;;;;;;;4.07;3.37;;;;;;;;;;5005010;28;20217;-75
2022/10/28 01:19:58;;;;;;;3.17;2.90;;;;;;;;;;5006813;28;20227;-76
2022/10/28 01:22:27;;;;;;;7.30;2.97;;;;;;;;;;5003252;28;20256;-75
2022/10/28 01:24:52;;;;;;;6.50;2.80;;;;;;;;;;5010779;28;20224;-75
2022/10/28 01:27:39;;;;;;;3.33;2.90;;;;;;;;;;5020770;28;20223;-76
2022/10/28 01:30:18;;;;;;;3.67;3.20;;;;;;;;;;5023248;28;20251;-75
2022/10/28 01:32:49;;;;;;;4.73;2.87;;;;;;;;;;5007101;28;20756;-75
2022/10/28 01:35:39;;;;;;;4.00;2.83;;;;;;;;;;5020176;28;20225;-76
2022/10/28 01:38:10;;;;;;;3.80;2.63;;;;;;;;;;4991871;28;20264;-75
2022/10/28 01:40:38;;;;;;;2.63;2.43;;;;;;;;;;5020359;28;20228;-75
2022/10/28 01:43:09;;;;;;;3.03;2.73;;;;;;;;;;5020040;28;20289;-75
2022/10/28 01:46:04;;;;;;;3.73;2.30;;;;;;;;;;4998936;28;20249;-76
2022/10/28 01:48:42;;;;;;;3.07;2.87;;;;;;;;;;5002291;28;20770;-77
2022/10/28 01:51:16;;;;;;;4.87;3.13;;;;;;;;;;4998183;28;20228;-76
2022/10/28 01:53:41;;;;;;;5.30;3.80;;;;;;;;;;4998774;28;20231;-76
2022/10/28 01:56:09;;;;;;;4.53;4.13;;;;;;;;;;4997965;28;20229;-75
2022/10/28 01:58:37;;;;;;;4.27;3.90;;;;;;;;;;4994188;28;20224;-76
2022/10/28 02:01:08;;;;;;;6.67;3.90;;;;;;;;;;5018484;28;20233;-75
2022/10/28 02:03:33;;;;;;;4.30;3.90;;;;;;;;;;4998381;28;20267;-75
2022/10/28 02:06:02;;;;;;;7.03;4.47;;;;;;;;;;5012166;28;20789;-75
2022/10/28 02:08:27;;;;;;;7.90;4.50;;;;;;;;;;4975360;28;20619;-75
2022/10/28 02:10:59;;;;;;;6.23;4.10;;;;;;;;;;5002491;28;20233;-75
2022/10/28 02:13:34;;;;;;;6.97;4.70;;;;;;;;;;5013992;28;20224;-75
2022/10/28 02:16:05;;;;;;;9.17;4.93;;;;;;;;;;5006005;28;20278;-76
2022/10/28 02:19:06;;;;;;;4.93;4.50;;;;;;;;;;5002142;28;20240;-75
2022/10/28 02:22:01;;;;;;;5.53;4.80;;;;;;;;;;5002110;28;20319;-75
2022/10/28 02:24:35;;;;;;;7.73;5.00;;;;;;;;;;4985046;28;20232;-75
2022/10/28 02:27:08;;;;;;;5.60;4.87;;;;;;;;;;5013271;28;20615;-76
2022/10/28 02:29:47;;;;;;;5.27;4.77;;;;;;;;;;4983187;28;20228;-75
2022/10/28 02:32:19;;;;;;;5.23;4.73;;;;;;;;;;4993317;28;20232;-75
2022/10/28 02:34:45;;;;;;;5.20;4.67;;;;;;;;;;4988731;28;20311;-76
2022/10/28 02:37:14;;;;;;;6.30;5.13;;;;;;;;;;5013309;28;20220;-75
2022/10/28 02:39:41;;;;;;;5.37;4.43;;;;;;;;;;4997135;28;20714;-75
2022/10/28 02:42:16;;;;;;;8.40;5.10;;;;;;;;;;4989247;28;20236;-75
2022/10/28 02:44:45;;;;;;;7.30;4.40;;;;;;;;;;4985068;28;20228;-75
2022/10/28 02:47:12;;;;;;;4.83;4.33;;;;;;;;;;4975832;28;20235;-75
2022/10/28 02:49:44;;;;;;;5.30;4.80;;;;;;;;;;4990518;28;20224;-75
2022/10/28 02:52:12;;;;;;;10.20;5.10;;;;;;;;;;4990022;28;20750;-75
2022/10/28 02:54:37;;;;;;;5.47;4.60;;;;;;;;;;4985739;28;20220;-75
2022/10/28 02:57:12;;;;;;;5.90;4.53;;;;;;;;;;5008239;28;20307;-74
2022/10/28 02:59:40;;;;;;;5.13;4.63;;;;;;;;;;5003005;28;20235;-75
2022/10/28 03:02:06;;;;;;;8.00;4.77;;;;;;;;;;5003226;28;20323;-75
2022/10/28 03:04:34;;;;;;;7.73;4.97;;;;;;;;;;5005558;28;20224;-75
2022/10/28 03:06:59;;;;;;;6.87;4.97;;;;;;;;;;5002550;28;20248;-75
2022/10/28 03:09:25;;;;;;;5.33;4.83;;;;;;;;;;5018856;28;20224;-75
2022/10/28 03:11:50;;;;;;;6.73;4.80;;;;;;;;;;5019940;28;20215;-75
2022/10/28 03:14:16;;;;;;;9.07;5.23;;;;;;;;;;5015714;28;20774;-76
2022/10/28 03:16:44;;;;;;;6.90;5.97;;;;;;;;;;5011097;28;20217;-73
2022/10/28 03:19:10;;;;;;;6.20;5.60;;;;;;;;;;4977719;28;20267;-73
2022/10/28 03:21:36;;;;;;;7.20;5.37;;;;;;;;;;4999138;28;20256;-73
2022/10/28 03:24:02;;;;;;;5.47;4.97;;;;;;;;;;5006557;28;20722;-73
2022/10/28 03:26:27;;;;;;;5.77;5.03;;;;;;;;;;5004488;28;20311;-73
2022/10/28 03:28:53;;;;;;;7.00;5.63;;;;;;;;;;5010179;28;20269;-73
2022/10/28 03:31:19;;;;;;;5.50;5.10;;;;;;;;;;4988739;28;20231;-74
2022/10/28 03:33:45;;;;;;;8.47;5.83;;;;;;;;;;5023959;28;20251;-75
2022/10/28 03:36:10;;;;;;;6.27;5.43;;;;;;;;;;5008611;28;20212;-74
2022/10/28 03:38:36;;;;;;;8.03;6.07;;;;;;;;;;5017162;28;20221;-75
2022/10/28 03:41:06;;;;;;;7.43;5.27;;;;;;;;;;5021918;28;20237;-76
2022/10/28 03:43:34;;;;;;;5.83;5.30;;;;;;;;;;5001964;28;20231;-75
2022/10/28 03:45:59;;;;;;;6.40;5.43;;;;;;;;;;5010122;28;20266;-76
2022/10/28 03:48:27;;;;;;;6.90;5.40;;;;;;;;;;5001007;28;20223;-75
2022/10/28 03:50:57;;;;;;;6.13;5.57;;;;;;;;;;5025203;28;20230;-76
2022/10/28 03:53:23;;;;;;;5.77;5.13;;;;;;;;;;5019158;28;20221;-76
2022/10/28 03:55:55;;;;;;;5.70;5.20;;;;;;;;;;4987940;28;20235;-75
2022/10/28 03:58:22;;;;;;;10.50;5.70;;;;;;;;;;5014088;28;20609;-77
2022/10/28 04:00:51;;;;;;;6.27;5.30;;;;;;;;;;5006170;28;20240;-75
2022/10/28 04:03:17;;;;;;;7.20;5.37;;;;;;;;;;5014657;28;20694;-75
2022/10/28 04:05:42;;;;;;;6.23;5.70;;;;;;;;;;5017797;28;20256;-75
2022/10/28 04:08:08;;;;;;;6.10;5.17;;;;;;;;;;5020375;28;20232;-75
2022/10/28 04:10:33;;;;;;;7.67;5.40;;;;;;;;;;5022509;28;20232;-75
2022/10/28 04:13:05;;;;;;;7.77;5.43;;;;;;;;;;5020706;28;20691;-75
2022/10/28 04:15:33;;;;;;;7.37;5.90;;;;;;;;;;5018644;28;20260;-74
2022/10/28 04:18:00;;;;;;;7.50;5.83;;;;;;;;;;5016864;28;20770;-75
2022/10/28 04:20:26;;;;;;;6.73;6.07;;;;;;;;;;5017252;28;20231;-75
2022/10/28 04:22:53;;;;;;;8.67;6.00;;;;;;;;;;4986925;28;20766;-75
2022/10/28 04:25:24;;;;;;;8.07;5.93;;;;;;;;;;5007231;28;20216;-75
2022/10/28 04:27:52;;;;;;;7.80;5.77;;;;;;;;;;5017425;28;20228;-76
2022/10/28 04:30:20;;;;;;;6.63;5.80;;;;;;;;;;5019897;28;20232;-75
2022/10/28 04:32:45;;;;;;;9.60;6.23;;;;;;;;;;5019629;28;20698;-74
2022/10/28 04:35:11;;;;;;;6.00;5.27;;;;;;;;;;5003414;28;20273;-75
2022/10/28 04:37:39;;;;;;;7.70;5.50;;;;;;;;;;5002783;28;20228;-75
2022/10/28 04:40:07;;;;;;;6.17;5.57;;;;;;;;;;4975811;28;20227;-74
2022/10/28 04:42:33;;;;;;;7.20;5.67;;;;;;;;;;5019639;28;20240;-74
2022/10/28 04:44:59;;;;;;;11.90;6.00;;;;;;;;;;5021558;28;20914;-74
2022/10/28 04:47:34;;;;;;;8.10;5.97;;;;;;;;;;5021667;28;20220;-73
2022/10/28 04:50:04;;;;;;;6.63;5.50;;;;;;;;;;5021963;28;20232;-74
2022/10/28 04:52:29;;;;;;;6.93;5.97;;;;;;;;;;4994451;28;20224;-76
2022/10/28 04:54:55;;;;;;;7.80;5.73;;;;;;;;;;5023075;28;20336;-75
2022/10/28 04:57:20;;;;;;;8.13;5.90;;;;;;;;;;5017739;28;20227;-77
2022/10/28 04:59:46;;;;;;;7.50;6.00;;;;;;;;;;5011070;28;20219;-75
2022/10/28 05:02:14;;;;;;;6.57;5.93;;;;;;;;;;5020085;28;20236;-75
2022/10/28 05:04:40;;;;;;;7.10;6.23;;;;;;;;;;5019742;28;20238;-75
2022/10/28 05:07:08;;;;;;;9.17;6.43;;;;;;;;;;5016335;28;20225;-75
2022/10/28 05:09:34;;;;;;;11.13;5.60;;;;;;;;;;5002468;28;20251;-75
2022/10/28 05:12:04;;;;;;;6.87;5.90;;;;;;;;;;5021762;28;20768;-76
2022/10/28 05:14:29;;;;;;;6.80;5.87;;;;;;;;;;5016992;28;20311;-75
2022/10/28 05:16:57;;;;;;;6.63;5.93;;;;;;;;;;5017659;28;20227;-75
2022/10/28 05:19:25;;;;;;;6.37;5.80;;;;;;;;;;5017938;28;20663;-76
2022/10/28 05:21:53;;;;;;;6.57;5.97;;;;;;;;;;5023237;28;20227;-76
2022/10/28 05:24:18;;;;;;;6.97;6.30;;;;;;;;;;5024144;28;20224;-76
2022/10/28 05:26:44;;;;;;;7.87;6.33;;;;;;;;;;5025122;28;20720;-76
2022/10/28 05:29:09;;;;;;;8.90;6.40;;;;;;;;;;5021526;28;20294;-74
2022/10/28 05:31:37;;;;;;;7.07;6.07;;;;;;;;;;5017608;28;20714;-74
2022/10/28 05:34:05;;;;;;;9.07;6.27;;;;;;;;;;5014697;28;20255;-74
2022/10/28 05:36:32;;;;;;;6.63;6.03;;;;;;;;;;5020862;28;20298;-74
2022/10/28 05:38:58;;;;;;;9.00;6.13;;;;;;;;;;4999149;28;20263;-74
2022/10/28 05:41:23;;;;;;;6.90;5.97;;;;;;;;;;5017678;28;20239;-74
2022/10/28 05:43:50;;;;;;;6.83;6.10;;;;;;;;;;5014644;28;20606;-74
2022/10/28 05:46:18;;;;;;;7.33;6.30;;;;;;;;;;4986258;28;20714;-74
2022/10/28 05:48:44;;;;;;;8.87;6.67;;;;;;;;;;5021407;28;20235;-75
2022/10/28 05:51:12;;;;;;;12.63;6.00;;;;;;;;;;5020302;28;20220;-74
2022/10/28 05:53:37;;;;;;;6.60;6.00;;;;;;;;;;5018511;28;20263;-74
2022/10/28 05:56:03;;;;;;;7.43;6.67;;;;;;;;;;5016196;28;20232;-74
2022/10/28 05:58:28;;;;;;;7.90;6.50;;;;;;;;;;5010521;28;20224;-75
2022/10/28 06:00:54;;;;;;;8.87;6.90;;;;;;;;;;4994159;28;20230;-75
2022/10/28 06:03:22;;;;;;;9.63;6.43;;;;;;;;;;5013288;28;20230;-75
2022/10/28 06:05:48;;;;;;;8.53;6.00;;;;;;;;;;5007901;28;20256;-75
2022/10/28 06:08:16;;;;;;;7.53;6.20;;;;;;;;;;5008740;28;20278;-75
2022/10/28 06:10:50;;;;;;;9.07;6.23;;;;;;;;;;5018617;28;20224;-75
2022/10/28 06:13:20;;;;;;;7.23;6.20;;;;;;;;;;5005074;28;20224;-75
2022/10/28 06:15:53;;;;;;;7.13;6.53;;;;;;;;;;4998651;28;20232;-76
2022/10/28 06:18:19;;;;;;;7.83;6.33;;;;;;;;;;4972644;28;20232;-76
2022/10/28 06:20:53;;;;;;;8.27;6.50;;;;;;;;;;5013700;28;20231;-77
2022/10/28 06:23:24;;;;;;;6.90;6.30;;;;;;;;;;5016568;28;20705;-76
2022/10/28 06:25:49;;;;;;;5.97;5.43;;;;;;;;;;4975640;28;20664;-76
2022/10/28 06:28:17;;;;;;;6.97;6.30;;;;;;;;;;5002066;28;20256;-76
2022/10/28 06:30:45;;;;;;;6.73;6.13;;;;;;;;;;5001915;28;20319;-76
2022/10/28 06:33:13;;;;;;;10.30;6.73;;;;;;;;;;5001137;28;20229;-75
2022/10/28 06:35:41;;;;;;;10.67;7.27;;;;;;;;;;5000476;28;20227;-76
2022/10/28 06:38:07;;;;;;;7.17;6.57;;;;;;;;;;5000859;28;20239;-75
2022/10/28 06:40:35;;;;;;;8.60;7.70;;;;;;;;;;5017437;28;20289;-75
2022/10/28 06:43:05;;;;;;;10.70;8.70;;;;;;;;;;5006617;28;20252;-75
2022/10/28 06:45:31;;;;;;;9.30;7.17;;;;;;;;;;5017227;28;20270;-75
2022/10/28 06:47:58;;;;;;;7.50;6.70;;;;;;;;;;5004630;28;20268;-75
2022/10/28 06:50:23;;;;;;;8.13;6.73;;;;;;;;;;5007028;28;20690;-75
2022/10/28 06:52:49;;;;;;;7.60;6.80;;;;;;;;;;5001828;28;20227;-75
2022/10/28 06:55:15;;;;;;;8.77;7.13;;;;;;;;;;5009701;28;20644;-77
2022/10/28 06:57:40;;;;;;;7.33;6.40;;;;;;;;;;5008110;28;20228;-76
2022/10/28 07:00:09;;;;;;;9.03;6.77;;;;;;;;;;5020313;28;20259;-76
2022/10/28 07:02:35;;;;;;;8.40;6.53;;;;;;;;;;5003625;28;20242;-74
2022/10/28 07:05:03;;;;;;;9.10;6.20;;;;;;;;;;5020924;28;20221;-75
2022/10/28 07:07:28;;;;;;;6.60;5.90;;;;;;;;;;5008170;28;20656;-74
2022/10/28 07:09:54;;;;;;;8.40;6.67;;;;;;;;;;5004294;28;20216;-76
2022/10/28 07:12:22;;;;;;;6.63;5.97;;;;;;;;;;4999159;28;20221;-75
2022/10/28 07:14:47;;;;;;;7.40;6.53;;;;;;;;;;5008473;28;20239;-75
2022/10/28 07:17:15;;;;;;;7.03;6.33;;;;;;;;;;5020230;28;20705;-76
2022/10/28 07:19:41;;;;;;;10.17;6.30;;;;;;;;;;5006911;28;20225;-75
2022/10/28 07:22:09;;;;;;;6.57;5.97;;;;;;;;;;5005539;28;20235;-75
2022/10/28 07:24:37;;;;;;;6.67;6.07;;;;;;;;;;5022280;28;20229;-74
2022/10/28 07:27:07;;;;;;;7.23;6.00;;;;;;;;;;4989307;28;20231;-76
2022/10/28 07:29:34;;;;;;;7.23;6.53;;;;;;;;;;5021376;28;20323;-75
2022/10/28 07:32:00;;;;;;;7.40;6.70;;;;;;;;;;5021608;28;20228;-72
2022/10/28 07:34:31;;;;;;;8.27;6.40;;;;;;;;;;4969486;28;20775;-73
2022/10/28 07:36:56;;;;;;;8.37;6.63;;;;;;;;;;4986928;28;20315;-75
2022/10/28 07:39:25;;;;;;;6.40;5.80;;;;;;;;;;5004378;28;20248;-73
2022/10/28 07:41:53;;;;;;;6.80;6.20;;;;;;;;;;5012565;28;20233;-75
2022/10/28 07:44:18;;;;;;;7.90;6.57;;;;;;;;;;5003087;28;20227;-76
2022/10/28 07:46:44;;;;;;;7.33;6.63;;;;;;;;;;5022033;28;20217;-76
2022/10/28 07:49:09;;;;;;;7.67;6.30;;;;;;;;;;4989610;28;20212;-76
2022/10/28 07:51:35;;;;;;;8.77;6.67;;;;;;;;;;5019111;28;20259;-73
2022/10/28 07:54:03;;;;;;;6.67;5.80;;;;;;;;;;5002671;28;20299;-75
2022/10/28 07:56:32;;;;;;;7.80;6.40;;;;;;;;;;4992335;28;20257;-75
2022/10/28 07:58:59;;;;;;;9.73;5.97;;;;;;;;;;4977819;28;20251;-76
2022/10/28 08:01:32;;;;;;;6.10;5.50;;;;;;;;;;4980219;28;20325;-75
2022/10/28 08:04:01;;;;;;;7.32;5.32;;;;;;;;;;4972577;28;20374;-75
2022/10/28 08:06:36;;;;;;;7.60;5.70;;;;;;;;;;4986708;28;20591;-76
2022/10/28 08:09:02;;;;;;;6.78;5.55;;;;;;;;;;4984128;28;20225;-75
2022/10/28 08:11:27;;;;;;;6.67;5.37;;;;;;;;;;4985402;28;20233;-76
2022/10/28 08:13:54;;;;;;;5.97;5.47;;;;;;;;;;5004286;28;20635;-75
2022/10/28 08:16:24;;;;;;;7.72;5.00;;;;;;;;;;4982920;28;20229;-76
2022/10/28 08:18:49;;;;;;;5.38;4.88;;;;;;;;;;4986727;28;20231;-76
2022/10/28 08:21:17;;;;;;;5.40;4.90;;;;;;;;;;4982946;28;20233;-75
2022/10/28 08:23:45;;;;;;;8.32;5.30;;;;;;;;;;4998608;28;20283;-75
2022/10/28 08:26:14;;;;;;;7.32;5.72;;;;;;;;;;4994627;28;20609;-76
2022/10/28 08:28:39;;;;;;;6.88;5.15;;;;;;;;;;4979302;28;20225;-75
2022/10/28 08:31:07;;;;;;;5.10;4.55;;;;;;;;;;4991420;28;20603;-74
2022/10/28 08:33:41;;;;;;;5.45;4.07;;;;;;;;;;5000152;28;20703;-75
2022/10/28 08:36:09;;;;;;;5.22;4.07;;;;;;;;;;4973292;28;20655;-76
2022/10/28 08:39:07;;;;;;;6.05;3.88;;;;;;;;;;4985759;28;20231;-75
2022/10/28 08:41:53;;;;;;;6.80;4.13;;;;;;;;;;4990742;28;20235;-75
2022/10/28 08:44:56;;;;;;;5.20;3.63;;;;;;;;;;4996230;28;20760;-76
2022/10/28 08:47:38;;;;;;;7.22;3.63;;;;;;;;;;5009362;28;20721;-75
2022/10/28 08:50:14;;;;;;;7.28;3.78;;;;;;;;;;4990741;28;20231;-76
2022/10/28 08:53:04;;;;;;;4.93;3.35;;;;;;;;;;4995000;28;20741;-76
2022/10/28 08:55:34;;;;;;;4.20;3.28;;;;;;;;;;4995427;28;20232;-76
2022/10/28 08:58:07;;;;;;;4.88;3.20;;;;;;;;;;4992023;28;20250;-76
2022/10/28 09:00:33;;;;;;;7.18;3.58;;;;;;;;;;5008443;28;20236;-78
2022/10/28 09:03:07;;;;;;;8.00;3.47;;;;;;;;;;5007983;28;20275;-76
2022/10/28 09:05:33;;;;;;;5.50;3.50;;;;;;;;;;5021728;28;20290;-76
2022/10/28 09:08:01;;;;;;;4.75;3.47;;;;;;;;;;5016724;28;20656;-75
2022/10/28 09:10:35;;;;;;;5.00;3.28;;;;;;;;;;5018282;28;20716;-75
2022/10/28 09:13:39;;;;;;;4.47;3.38;;;;;;;;;;5004739;28;20248;-76
2022/10/28 09:16:04;;;;;;;4.20;3.00;;;;;;;;;;4981259;28;20243;-75
2022/10/28 09:18:49;;;;;;;5.85;2.85;;;;;;;;;;5023980;28;20228;-75
2022/10/28 09:21:23;;;;;;;6.90;3.00;;;;;;;;;;5007213;28;20263;-74
2022/10/28 09:24:05;;;;;;;4.40;3.20;;;;;;;;;;5016723;28;20236;-75
2022/10/28 09:26:32;;;;;;;8.27;3.13;;;;;;;;;;5003821;28;20228;-74
2022/10/28 09:29:09;;;;;;;4.32;3.08;;;;;;;;;;5020625;28;20274;-74
2022/10/28 09:31:45;;;;;;;4.43;3.00;;;;;;;;;;5017972;28;20335;-76
2022/10/28 09:34:31;;;;;;;4.00;2.60;;;;;;;;;;5003522;28;20220;-75
2022/10/28 09:37:02;;;;;;;3.50;2.80;;;;;;;;;;4994211;28;20655;-76
2022/10/28 09:39:31;;;;;;;4.80;2.67;;;;;;;;;;5018665;28;20239;-75
2022/10/28 09:41:57;;;;;;;4.63;3.00;;;;;;;;;;5014303;28;20379;-74
2022/10/28 09:44:48;;;;;;;3.55;2.88;;;;;;;;;;4999184;28;20300;-75
2022/10/28 09:47:39;;;;;;;3.95;2.60;;;;;;;;;;5004809;28;20277;-75
2022/10/28 09:50:15;;;;;;;7.13;3.10;;;;;;;;;;5008127;28;20225;-75
2022/10/28 09:53:19;;;;;;;5.40;2.80;;;;;;;;;;4993344;28;20223;-76
2022/10/28 09:55:47;;;;;;;4.68;2.75;;;;;;;;;;5018216;28;20237;-76
2022/10/28 09:58:12;;;;;;;8.18;2.90;;;;;;;;;;5002034;28;20236;-77
2022/10/28 10:00:41;;;;;;;3.75;2.75;;;;;;;;;;5003499;28;20267;-76
2022/10/28 10:03:06;;;;;;;5.05;2.75;;;;;;;;;;5006106;28;20223;-75
2022/10/28 10:05:32;;;;;;;3.80;2.63;;;;;;;;;;5007848;28;20945;-76
2022/10/28 10:08:03;;;;;;;4.80;2.88;;;;;;;;;;5004947;28;20223;-76
2022/10/28 10:10:34;;;;;;;5.70;2.70;;;;;;;;;;4985861;28;20723;-76
2022/10/28 10:13:02;;;;;;;5.22;2.40;;;;;;;;;;5015804;28;20220;-77
2022/10/28 10:15:47;;;;;;;4.70;2.78;;;;;;;;;;4987262;28;20240;-76
2022/10/28 10:18:17;;;;;;;5.70;2.55;;;;;;;;;;4998201;28;20212;-76
2022/10/28 10:20:51;;;;;;;3.80;2.20;;;;;;;;;;4998174;28;20231;-74
2022/10/28 10:23:36;;;;;;;4.05;2.60;;;;;;;;;;4992848;28;20227;-74
2022/10/28 10:26:05;;;;;;;4.20;2.35;;;;;;;;;;4999555;28;20219;-74
2022/10/28 10:28:32;;;;;;;13.48;2.85;;;;;;;;;;5017075;28;20741;-74
2022/10/28 10:31:01;;;;;;;4.90;2.28;;;;;;;;;;4985280;28;20228;-74
2022/10/28 10:33:32;;;;;;;4.20;2.40;;;;;;;;;;5000507;28;20253;-74
2022/10/28 10:36:02;;;;;;;5.15;2.53;;;;;;;;;;4987631;28;20224;-74
2022/10/28 10:38:28;;;;;;;5.32;2.70;;;;;;;;;;5015736;28;20227;-74
2022/10/28 10:40:53;;;;;;;3.20;2.53;;;;;;;;;;4989141;28;20600;-74
2022/10/28 10:43:29;;;;;;;5.63;2.50;;;;;;;;;;5000262;28;20216;-75
2022/10/28 10:46:15;;;;;;;3.80;2.15;;;;;;;;;;5018852;28;20253;-77
2022/10/28 10:48:43;;;;;;;5.20;2.50;;;;;;;;;;4997368;28;20220;-76
2022/10/28 10:51:15;;;;;;;5.80;2.38;;;;;;;;;;4994858;28;20232;-76
2022/10/28 10:53:50;;;;;;;3.70;2.20;;;;;;;;;;5016244;28;20232;-75
2022/10/28 10:56:23;;;;;;;3.53;2.20;;;;;;;;;;4987025;28;20220;-75
2022/10/28 10:58:52;;;;;;;5.10;2.30;;;;;;;;;;4998808;28;20254;-75
2022/10/28 11:01:22;;;;;;;3.88;2.20;;;;;;;;;;5018507;28;20213;-75
2022/10/28 11:03:52;;;;;;;5.20;2.78;;;;;;;;;;5014896;28;20298;-75
2022/10/28 11:06:48;;;;;;;7.72;2.35;;;;;;;;;;4998005;28;20216;-76
2022/10/28 11:09:19;;;;;;;2.20;2.00;;;;;;;;;;4961769;28;20271;-76
2022/10/28 11:11:44;;;;;;;2.95;2.20;;;;;;;;;;4999912;28;20285;-76
2022/10/28 11:14:36;;;;;;;4.05;2.30;;;;;;;;;;4998304;28;20232;-76
2022/10/28 11:17:02;;;;;;;7.75;2.97;;;;;;;;;;5013713;28;20225;-75
2022/10/28 11:19:29;;;;;;;4.45;2.83;;;;;;;;;;4982182;28;20718;-76
2022/10/28 11:22:24;;;;;;;4.93;2.42;;;;;;;;;;5020271;28;20239;-75
2022/10/28 11:25:20;;;;;;;12.15;2.90;;;;;;;;;;5006497;28;20227;-75
2022/10/28 11:28:08;;;;;;;4.20;2.30;;;;;;;;;;5009873;28;20354;-75
2022/10/28 11:31:05;;;;;;;3.50;2.38;;;;;;;;;;5003436;28;20244;-77
2022/10/28 11:33:53;;;;;;;4.40;2.55;;;;;;;;;;4999134;28;20490;-76
2022/10/28 11:36:29;;;;;;;4.28;2.60;;;;;;;;;;5003963;28;20227;-76
2022/10/28 11:39:10;;;;;;;3.90;2.70;;;;;;;;;;5005088;28;20299;-74
2022/10/28 11:41:43;;;;;;;7.82;2.83;;;;;;;;;;5003338;28;20233;-74
2022/10/28 11:44:43;;;;;;;6.15;2.85;;;;;;;;;;4983448;28;20227;-74
2022/10/28 11:47:23;;;;;;;3.97;2.65;;;;;;;;;;4993227;28;20219;-74
2022/10/28 11:50:01;;;;;;;6.78;2.97;;;;;;;;;;5007445;28;20319;-74
2022/10/28 11:52:51;;;;;;;6.65;2.80;;;;;;;;;;5018188;28;20258;-73
2022/10/28 11:55:24;;;;;;;7.00;2.78;;;;;;;;;;5012363;28;20228;-74
2022/10/28 11:58:08;;;;;;;4.68;2.35;;;;;;;;;;5010432;28;20303;-74
2022/10/28 12:01:11;;;;;;;2.63;2.28;;;;;;;;;;4993162;28;20232;-73
2022/10/28 12:03:51;;;;;;;6.47;2.60;;;;;;;;;;5003920;28;21120;-73
2022/10/28 12:06:46;;;;;;;3.45;2.33;;;;;;;;;;5020567;28;20224;-73
2022/10/28 12:09:18;;;;;;;3.63;2.58;;;;;;;;;;4951818;28;20237;-73
2022/10/28 12:12:07;;;;;;;4.22;2.47;;;;;;;;;;4992726;28;20254;-73
2022/10/28 12:15:00;;;;;;;4.80;2.40;;;;;;;;;;5021013;28;20232;-75
2022/10/28 12:17:39;;;;;;;5.25;2.85;;;;;;;;;;5007827;28;20254;-74
2022/10/28 12:20:13;;;;;;;6.15;2.45;;;;;;;;;;5021763;28;20230;-75
2022/10/28 12:22:59;;;;;;;9.07;2.80;;;;;;;;;;5004697;28;20231;-72
2022/10/28 12:25:27;;;;;;;3.85;2.47;;;;;;;;;;4989561;28;20232;-73
2022/10/28 12:28:01;;;;;;;4.90;2.60;;;;;;;;;;4963931;28;20592;-74
2022/10/28 12:30:28;;;;;;;5.05;2.70;;;;;;;;;;5019437;28;20706;-75
2022/10/28 12:33:22;;;;;;;8.02;2.47;;;;;;;;;;4988365;28;20212;-73
2022/10/28 12:36:02;;;;;;;4.80;2.30;;;;;;;;;;5016224;28;20241;-74
2022/10/28 12:38:31;;;;;;;3.53;2.30;;;;;;;;;;4999286;28;20232;-74
2022/10/28 12:41:20;;;;;;;5.85;3.00;;;;;;;;;;4991720;28;20221;-74
2022/10/28 12:43:53;;;;;;;8.77;3.15;;;;;;;;;;5006827;28;20695;-74
2022/10/28 12:46:28;;;;;;;5.72;2.40;;;;;;;;;;4972891;28;20240;-74
2022/10/28 12:48:55;;;;;;;7.60;2.80;;;;;;;;;;4984025;28;20231;-74
2022/10/28 12:51:26;;;;;;;5.22;2.80;;;;;;;;;;4976863;28;20231;-74
2022/10/28 12:54:13;;;;;;;4.32;2.70;;;;;;;;;;4946650;28;20222;-75
2022/10/28 12:56:41;;;;;;;3.95;2.30;;;;;;;;;;4987488;28;20247;-74
2022/10/28 12:59:16;;;;;;;3.75;2.53;;;;;;;;;;5008118;28;20220;-75
2022/10/28 13:01:43;;;;;;;3.88;2.58;;;;;;;;;;4989827;28;20583;-75
2022/10/28 13:04:11;;;;;;;6.45;3.13;;;;;;;;;;4983230;28;20224;-76
2022/10/28 13:06:48;;;;;;;3.90;2.40;;;;;;;;;;4988366;28;20644;-74
2022/10/28 13:09:36;;;;;;;4.03;2.58;;;;;;;;;;4987627;28;20605;-76
2022/10/28 13:12:32;;;;;;;8.70;2.88;;;;;;;;;;5008987;28;20220;-76
2022/10/28 13:15:24;;;;;;;5.00;2.55;;;;;;;;;;5026544;28;20238;-75
2022/10/28 13:18:16;;;;;;;6.28;2.78;;;;;;;;;;5022479;28;20306;-76
2022/10/28 13:20:51;;;;;;;3.58;2.72;;;;;;;;;;5008998;28;20239;-75
2022/10/28 13:23:39;;;;;;;4.80;2.47;;;;;;;;;;5018223;28;20215;-76
2022/10/28 13:26:29;;;;;;;6.53;2.90;;;;;;;;;;5008153;28;20283;-75
2022/10/28 13:28:57;;;;;;;4.38;2.65;;;;;;;;;;4987008;28;20697;-74
2022/10/28 13:31:22;;;;;;;7.45;2.75;;;;;;;;;;4977193;28;20375;-73
2022/10/28 13:33:51;;;;;;;4.70;2.42;;;;;;;;;;5006411;28;20588;-74
2022/10/28 13:36:39;;;;;;;7.38;3.28;;;;;;;;;;5006175;28;20235;-74
2022/10/28 13:39:19;;;;;;;6.75;2.80;;;;;;;;;;5006423;28;20262;-76
2022/10/28 13:41:44;;;;;;;5.30;2.80;;;;;;;;;;4986667;28;20319;-75
2022/10/28 13:44:47;;;;;;;5.47;2.75;;;;;;;;;;5006700;28;20220;-75
2022/10/28 13:47:16;;;;;;;3.78;2.90;;;;;;;;;;4989133;28;20300;-74
2022/10/28 13:50:06;;;;;;;6.60;2.60;;;;;;;;;;4998076;28;20757;-75
2022/10/28 13:53:06;;;;;;;7.88;2.55;;;;;;;;;;5020116;28;20274;-75
2022/10/28 13:55:38;;;;;;;10.30;3.00;;;;;;;;;;5006879;28;20792;-75
2022/10/28 13:58:21;;;;;;;6.68;2.78;;;;;;;;;;5020469;28;20224;-75
2022/10/28 14:00:49;;;;;;;6.63;2.88;;;;;;;;;;4994039;28;20231;-74
2022/10/28 14:03:18;;;;;;;5.38;2.75;;;;;;;;;;5003639;28;20224;-74
2022/10/28 14:05:47;;;;;;;4.78;2.50;;;;;;;;;;4991888;28;20235;-75
2022/10/28 14:08:32;;;;;;;5.95;2.40;;;;;;;;;;5002314;28;20231;-75
2022/10/28 14:11:13;;;;;;;4.40;2.40;;;;;;;;;;5022849;28;20803;-74
2022/10/28 14:13:52;;;;;;;7.82;2.97;;;;;;;;;;4988833;28;20224;-75
2022/10/28 14:16:24;;;;;;;6.72;2.53;;;;;;;;;;5010427;28;20823;-74
2022/10/28 14:18:55;;;;;;;5.18;2.50;;;;;;;;;;5000033;28;20231;-75
2022/10/28 14:21:20;;;;;;;6.55;2.97;;;;;;;;;;4988401;28;20228;-75
2022/10/28 14:23:50;;;;;;;5.80;2.70;;;;;;;;;;5006341;28;20229;-74
2022/10/28 14:26:15;;;;;;;4.70;2.55;;;;;;;;;;5009372;28;20810;-75
2022/10/28 14:28:41;;;;;;;6.45;2.40;;;;;;;;;;4992708;28;20297;-75
2022/10/28 14:31:07;;;;;;;6.22;3.00;;;;;;;;;;5018593;28;20239;-75
2022/10/28 14:33:41;;;;;;;7.78;2.70;;;;;;;;;;4988618;28;20924;-74
2022/10/28 14:36:16;;;;;;;3.42;2.55;;;;;;;;;;5003083;28;20350;-74
2022/10/28 14:38:56;;;;;;;5.20;2.60;;;;;;;;;;5016354;28;20331;-75
2022/10/28 14:41:43;;;;;;;5.72;2.85;;;;;;;;;;4985474;28;20250;-75
2022/10/28 14:44:27;;;;;;;5.35;2.60;;;;;;;;;;5005188;28;20211;-75
2022/10/28 14:47:07;;;;;;;4.95;2.50;;;;;;;;;;5006715;28;20236;-76
2022/10/28 14:49:33;;;;;;;5.68;2.60;;;;;;;;;;4999599;28;20227;-75
2022/10/28 14:52:14;;;;;;;3.72;2.70;;;;;;;;;;4975645;28;20734;-74
2022/10/28 14:54:47;;;;;;;3.35;2.22;;;;;;;;;;4976157;28;20237;-74
2022/10/28 14:57:12;;;;;;;5.55;2.47;;;;;;;;;;4991406;28;20229;-75
2022/10/28 14:59:42;;;;;;;8.18;2.92;;;;;;;;;;4996207;28;20287;-75
2022/10/28 15:02:20;;;;;;;4.65;2.83;;;;;;;;;;4998832;28;20224;-75
2022/10/28 15:04:47;;;;;;;3.75;2.65;;;;;;;;;;4987851;28;20229;-75
2022/10/28 15:07:17;;;;;;;5.72;3.00;;;;;;;;;;4989238;28;20216;-75
2022/10/28 15:09:49;;;;;;;4.28;3.17;;;;;;;;;;4969800;28;20232;-74
2022/10/28 15:12:17;;;;;;;4.82;2.92;;;;;;;;;;4990125;28;20589;-75
2022/10/28 15:14:46;;;;;;;5.53;2.90;;;;;;;;;;4987080;28;20247;-74